createdAt,value
2023-05-17T00:00:20.868Z,21.18
2023-05-17T00:00:52.297Z,21.21
2023-05-17T00:01:23.777Z,21.21
2023-05-17T00:01:55.214Z,21.18
2023-05-17T00:02:26.697Z,21.18
2023-05-17T00:02:58.188Z,21.16
2023-05-17T00:03:29.640Z,21.16
2023-05-17T00:04:01.225Z,21.17
2023-05-17T00:04:32.870Z,21.16
2023-05-17T00:05:04.360Z,21.15
2023-05-17T00:05:35.816Z,21.15
2023-05-17T00:06:07.318Z,21.16
2023-05-17T00:06:38.850Z,21.18
2023-05-17T00:07:10.226Z,21.19
2023-05-17T00:07:41.625Z,21.18
2023-05-17T00:08:13.078Z,21.19
2023-05-17T00:08:44.519Z,21.19
2023-05-17T00:09:15.890Z,21.18
2023-05-17T00:09:47.363Z,21.20
2023-05-17T00:10:18.747Z,21.15
2023-05-17T00:10:50.206Z,21.19
2023-05-17T00:11:21.648Z,21.14
2023-05-17T00:11:53.071Z,21.16
2023-05-17T00:12:24.535Z,21.18
2023-05-17T00:12:55.958Z,21.22
2023-05-17T00:13:27.564Z,21.23
2023-05-17T00:13:58.960Z,21.19
2023-05-17T00:14:30.401Z,21.16
2023-05-17T00:15:01.857Z,21.19
2023-05-17T00:15:33.301Z,21.14
2023-05-17T00:16:04.808Z,21.24
2023-05-17T00:16:36.281Z,21.19
2023-05-17T00:17:07.702Z,21.15
2023-05-17T00:17:39.362Z,21.18
2023-05-17T00:18:10.922Z,21.18
2023-05-17T00:18:42.492Z,21.19
2023-05-17T00:19:14.145Z,21.16
2023-05-17T00:19:45.757Z,21.26
2023-05-17T00:20:17.236Z,21.26
2023-05-17T00:20:48.611Z,21.26
2023-05-17T00:21:20.068Z,21.18
2023-05-17T00:21:51.439Z,21.23
2023-05-17T00:22:22.883Z,21.23
2023-05-17T00:22:54.318Z,21.23
2023-05-17T00:23:25.759Z,21.27
2023-05-17T00:23:57.193Z,21.21
2023-05-17T00:24:28.648Z,21.24
2023-05-17T00:25:01.465Z,21.25
2023-05-17T00:25:32.892Z,21.24
2023-05-17T00:26:04.432Z,21.22
2023-05-17T00:26:35.922Z,21.25
2023-05-17T00:27:07.409Z,21.21
2023-05-17T00:27:38.802Z,21.18
2023-05-17T00:28:10.196Z,21.14
2023-05-17T00:28:41.639Z,21.18
2023-05-17T00:29:13.045Z,21.18
2023-05-17T00:29:44.483Z,21.20
2023-05-17T00:30:15.927Z,21.19
2023-05-17T00:30:47.373Z,21.20
2023-05-17T00:31:18.801Z,21.20
2023-05-17T00:31:50.270Z,21.21
2023-05-17T00:32:21.725Z,21.21
2023-05-17T00:32:53.177Z,21.21
2023-05-17T00:33:24.654Z,21.21
2023-05-17T00:33:56.089Z,21.20
2023-05-17T00:34:27.619Z,21.18
2023-05-17T00:34:59.087Z,21.19
2023-05-17T00:35:30.811Z,21.24
2023-05-17T00:36:02.381Z,21.24
2023-05-17T00:36:33.811Z,21.21
2023-05-17T00:37:05.290Z,21.21
2023-05-17T00:37:36.699Z,21.16
2023-05-17T00:38:08.186Z,21.17
2023-05-17T00:38:39.599Z,21.20
2023-05-17T00:39:11.104Z,21.18
2023-05-17T00:39:42.619Z,21.20
2023-05-17T00:40:14.144Z,21.19
2023-05-17T00:40:45.562Z,21.17
2023-05-17T00:41:16.987Z,21.22
2023-05-17T00:41:48.349Z,21.19
2023-05-17T00:42:19.777Z,21.16
2023-05-17T00:42:51.191Z,21.16
2023-05-17T00:43:22.629Z,21.18
2023-05-17T00:43:54.106Z,21.23
2023-05-17T00:44:25.578Z,21.24
2023-05-17T00:44:57.082Z,21.21
2023-05-17T00:45:28.849Z,21.23
2023-05-17T00:46:00.485Z,21.24
2023-05-17T00:46:31.874Z,21.19
2023-05-17T00:47:03.332Z,21.23
2023-05-17T00:47:34.764Z,21.25
2023-05-17T00:48:06.383Z,21.20
2023-05-17T00:48:38.039Z,21.19
2023-05-17T00:49:09.637Z,21.23
2023-05-17T00:49:41.097Z,21.21
2023-05-17T00:50:12.512Z,21.19
2023-05-17T00:50:43.967Z,21.17
2023-05-17T00:51:15.391Z,21.20
2023-05-17T00:51:46.866Z,21.20
2023-05-17T00:52:18.331Z,21.20
2023-05-17T00:52:49.713Z,21.21
2023-05-17T00:53:21.134Z,21.24
2023-05-17T00:53:52.527Z,21.26
2023-05-17T00:54:24.020Z,21.21
2023-05-17T00:54:55.478Z,21.21
2023-05-17T00:55:27.142Z,21.21
2023-05-17T00:55:58.714Z,21.19
2023-05-17T00:56:30.271Z,21.18
2023-05-17T00:57:01.735Z,21.15
2023-05-17T00:57:33.179Z,21.18
2023-05-17T00:58:04.666Z,21.16
2023-05-17T00:58:36.147Z,21.17
2023-05-17T00:59:07.561Z,21.18
2023-05-17T00:59:39.006Z,21.20
2023-05-17T01:00:10.469Z,21.16
2023-05-17T01:00:41.885Z,21.19
2023-05-17T01:01:13.288Z,21.17
2023-05-17T01:01:44.744Z,21.14
2023-05-17T01:02:16.165Z,21.16
2023-05-17T01:02:47.686Z,21.13
2023-05-17T01:03:19.224Z,21.16
2023-05-17T01:03:50.856Z,21.14
2023-05-17T01:04:22.400Z,21.11
2023-05-17T01:04:53.962Z,21.14
2023-05-17T01:05:25.483Z,21.14
2023-05-17T01:05:56.927Z,21.15
2023-05-17T01:06:28.400Z,21.23
2023-05-17T01:06:59.794Z,21.23
2023-05-17T01:07:31.198Z,21.20
2023-05-17T01:08:02.678Z,21.14
2023-05-17T01:08:34.116Z,21.12
2023-05-17T01:09:05.503Z,21.17
2023-05-17T01:09:37.010Z,21.18
2023-05-17T01:10:08.440Z,21.16
2023-05-17T01:10:39.884Z,21.15
2023-05-17T01:11:11.353Z,21.13
2023-05-17T01:11:42.773Z,21.13
2023-05-17T01:12:14.186Z,21.11
2023-05-17T01:12:45.606Z,21.12
2023-05-17T01:13:17.012Z,21.14
2023-05-17T01:13:48.448Z,21.12
2023-05-17T01:14:19.865Z,21.11
2023-05-17T01:14:51.307Z,21.11
2023-05-17T01:15:22.749Z,21.11
2023-05-17T01:15:54.184Z,21.13
2023-05-17T01:16:25.648Z,21.11
2023-05-17T01:16:57.034Z,21.08
2023-05-17T01:17:28.511Z,21.12
2023-05-17T01:18:00.045Z,21.16
2023-05-17T01:18:31.746Z,21.13
2023-05-17T01:19:03.400Z,21.11
2023-05-17T01:19:34.975Z,21.11
2023-05-17T01:20:06.655Z,21.10
2023-05-17T01:20:38.473Z,21.12
2023-05-17T01:21:09.962Z,21.12
2023-05-17T01:21:41.469Z,21.11
2023-05-17T01:22:12.905Z,21.11
2023-05-17T01:22:44.423Z,21.09
2023-05-17T01:23:15.877Z,21.12
2023-05-17T01:23:47.313Z,21.11
2023-05-17T01:24:18.750Z,21.11
2023-05-17T01:24:50.209Z,21.12
2023-05-17T01:25:21.676Z,21.12
2023-05-17T01:25:53.146Z,21.16
2023-05-17T01:26:24.665Z,21.14
2023-05-17T01:26:56.203Z,21.12
2023-05-17T01:27:27.755Z,21.11
2023-05-17T01:27:59.165Z,21.14
2023-05-17T01:28:30.622Z,21.13
2023-05-17T01:29:02.034Z,21.16
2023-05-17T01:29:33.445Z,21.15
2023-05-17T01:30:04.855Z,21.14
2023-05-17T01:30:39.216Z,21.12
2023-05-17T01:31:10.623Z,21.14
2023-05-17T01:31:42.092Z,21.14
2023-05-17T01:32:13.546Z,21.14
2023-05-17T01:32:45.043Z,21.12
2023-05-17T01:33:16.677Z,21.11
2023-05-17T01:33:48.533Z,21.13
2023-05-17T01:34:20.138Z,21.12
2023-05-17T01:34:51.556Z,21.13
2023-05-17T01:35:22.968Z,21.14
2023-05-17T01:35:54.376Z,21.14
2023-05-17T01:36:25.757Z,21.12
2023-05-17T01:36:57.187Z,21.12
2023-05-17T01:37:28.670Z,21.13
2023-05-17T01:38:00.075Z,21.13
2023-05-17T01:38:31.541Z,21.14
2023-05-17T01:39:02.926Z,21.11
2023-05-17T01:39:34.336Z,21.10
2023-05-17T01:40:05.758Z,21.09
2023-05-17T01:40:37.204Z,21.09
2023-05-17T01:41:08.685Z,21.12
2023-05-17T01:41:40.112Z,21.16
2023-05-17T01:42:11.541Z,21.14
2023-05-17T01:42:43.158Z,21.13
2023-05-17T01:43:14.621Z,21.15
2023-05-17T01:43:46.116Z,21.12
2023-05-17T01:44:17.606Z,21.12
2023-05-17T01:44:49.054Z,21.16
2023-05-17T01:45:20.465Z,21.12
2023-05-17T01:45:51.856Z,21.11
2023-05-17T01:46:23.284Z,21.14
2023-05-17T01:46:54.823Z,21.10
2023-05-17T01:47:26.200Z,21.11
2023-05-17T01:47:57.724Z,21.12
2023-05-17T01:48:29.265Z,21.10
2023-05-17T01:49:00.920Z,21.13
2023-05-17T01:49:32.623Z,21.11
2023-05-17T01:50:04.038Z,21.12
2023-05-17T01:50:35.483Z,21.12
2023-05-17T01:51:06.916Z,21.10
2023-05-17T01:51:38.351Z,21.09
2023-05-17T01:52:09.784Z,21.13
2023-05-17T01:52:41.304Z,21.13
2023-05-17T01:53:12.801Z,21.15
2023-05-17T01:53:44.262Z,21.14
2023-05-17T01:54:15.647Z,21.15
2023-05-17T01:54:47.121Z,21.14
2023-05-17T01:55:18.511Z,21.14
2023-05-17T01:55:49.952Z,21.11
2023-05-17T01:56:21.408Z,21.13
2023-05-17T01:56:52.824Z,21.14
2023-05-17T01:57:24.311Z,21.15
2023-05-17T01:57:55.712Z,21.20
2023-05-17T01:58:27.277Z,21.20
2023-05-17T01:58:58.688Z,21.14
2023-05-17T01:59:30.095Z,21.15
2023-05-17T02:00:01.514Z,21.14
2023-05-17T02:00:32.916Z,21.13
2023-05-17T02:01:04.494Z,21.16
2023-05-17T02:01:35.858Z,21.14
2023-05-17T02:02:07.256Z,21.12
2023-05-17T02:02:38.757Z,21.11
2023-05-17T02:03:10.169Z,21.13
2023-05-17T02:03:41.663Z,21.12
2023-05-17T02:04:13.262Z,21.12
2023-05-17T02:04:44.793Z,21.10
2023-05-17T02:05:16.327Z,21.13
2023-05-17T02:05:47.789Z,21.10
2023-05-17T02:06:19.238Z,21.11
2023-05-17T02:06:50.624Z,21.12
2023-05-17T02:07:21.993Z,21.11
2023-05-17T02:07:53.370Z,21.10
2023-05-17T02:08:24.780Z,21.11
2023-05-17T02:08:56.315Z,21.11
2023-05-17T02:09:27.736Z,21.08
2023-05-17T02:09:59.129Z,21.06
2023-05-17T02:10:30.562Z,21.06
2023-05-17T02:11:01.968Z,21.07
2023-05-17T02:11:33.465Z,21.05
2023-05-17T02:12:04.888Z,21.10
2023-05-17T02:12:36.322Z,21.11
2023-05-17T02:13:07.808Z,21.14
2023-05-17T02:13:39.256Z,21.12
2023-05-17T02:14:10.709Z,21.14
2023-05-17T02:14:42.160Z,21.13
2023-05-17T02:15:13.560Z,21.11
2023-05-17T02:15:45.139Z,21.12
2023-05-17T02:16:16.539Z,21.14
2023-05-17T02:16:47.939Z,21.11
2023-05-17T02:17:19.396Z,21.12
2023-05-17T02:17:50.937Z,21.11
2023-05-17T02:18:22.859Z,21.12
2023-05-17T02:18:54.590Z,21.10
2023-05-17T02:19:26.136Z,21.09
2023-05-17T02:19:57.574Z,21.08
2023-05-17T02:20:29.010Z,21.10
2023-05-17T02:21:00.477Z,21.09
2023-05-17T02:21:31.916Z,21.12
2023-05-17T02:22:03.308Z,21.12
2023-05-17T02:22:34.761Z,21.11
2023-05-17T02:23:06.204Z,21.11
2023-05-17T02:23:37.737Z,21.13
2023-05-17T02:24:09.159Z,21.11
2023-05-17T02:24:40.686Z,21.13
2023-05-17T02:25:12.096Z,21.15
2023-05-17T02:25:43.505Z,21.14
2023-05-17T02:26:14.901Z,21.11
2023-05-17T02:26:46.305Z,21.12
2023-05-17T02:27:17.740Z,21.13
2023-05-17T02:27:49.178Z,21.11
2023-05-17T02:28:20.562Z,21.08
2023-05-17T02:28:51.987Z,21.10
2023-05-17T02:29:23.434Z,21.13
2023-05-17T02:29:54.926Z,21.11
2023-05-17T02:30:26.366Z,21.14
2023-05-17T02:30:57.852Z,21.12
2023-05-17T02:31:29.329Z,21.11
2023-05-17T02:32:00.715Z,21.11
2023-05-17T02:32:32.302Z,21.12
2023-05-17T02:33:04.025Z,21.11
2023-05-17T02:33:35.652Z,21.09
2023-05-17T02:34:07.240Z,21.08
2023-05-17T02:34:38.692Z,21.07
2023-05-17T02:35:10.166Z,21.07
2023-05-17T02:35:41.553Z,21.09
2023-05-17T02:36:12.982Z,21.07
2023-05-17T02:36:44.418Z,21.11
2023-05-17T02:37:15.824Z,21.12
2023-05-17T02:37:47.241Z,21.13
2023-05-17T02:38:18.699Z,21.12
2023-05-17T02:38:50.095Z,21.10
2023-05-17T02:39:21.452Z,21.10
2023-05-17T02:39:52.841Z,21.10
2023-05-17T02:40:24.329Z,21.10
2023-05-17T02:40:55.723Z,21.10
2023-05-17T02:41:27.255Z,21.11
2023-05-17T02:41:58.671Z,21.11
2023-05-17T02:42:30.130Z,21.10
2023-05-17T02:43:01.597Z,21.08
2023-05-17T02:43:33.026Z,21.07
2023-05-17T02:44:04.434Z,21.08
2023-05-17T02:44:35.933Z,21.10
2023-05-17T02:45:07.502Z,21.14
2023-05-17T02:45:39.053Z,21.12
2023-05-17T02:46:10.467Z,21.11
2023-05-17T02:46:41.928Z,21.08
2023-05-17T02:47:13.417Z,21.10
2023-05-17T02:47:45.034Z,21.11
2023-05-17T02:48:16.508Z,21.08
2023-05-17T02:48:48.000Z,21.10
2023-05-17T02:49:19.383Z,21.11
2023-05-17T02:49:50.767Z,21.09
2023-05-17T02:50:22.148Z,21.08
2023-05-17T02:50:53.606Z,21.06
2023-05-17T02:51:25.035Z,21.11
2023-05-17T02:51:56.440Z,21.08
2023-05-17T02:52:27.843Z,21.09
2023-05-17T02:52:59.297Z,21.09
2023-05-17T02:53:30.758Z,21.10
2023-05-17T02:54:02.160Z,21.08
2023-05-17T02:54:33.568Z,21.10
2023-05-17T02:55:04.971Z,21.09
2023-05-17T02:55:36.453Z,21.10
2023-05-17T02:56:07.957Z,21.09
2023-05-17T02:56:39.411Z,21.08
2023-05-17T02:57:10.844Z,21.08
2023-05-17T02:57:42.283Z,21.11
2023-05-17T02:58:13.782Z,21.11
2023-05-17T02:58:45.170Z,21.08
2023-05-17T02:59:16.767Z,21.10
2023-05-17T02:59:48.151Z,21.11
2023-05-17T03:00:19.557Z,21.11
2023-05-17T03:00:50.924Z,21.11
2023-05-17T03:01:22.370Z,21.09
2023-05-17T03:01:53.797Z,21.10
2023-05-17T03:02:25.320Z,21.08
2023-05-17T03:02:56.875Z,21.07
2023-05-17T03:03:28.508Z,21.07
2023-05-17T03:04:00.243Z,21.06
2023-05-17T03:04:31.785Z,21.07
2023-05-17T03:05:03.273Z,21.05
2023-05-17T03:05:34.665Z,21.05
2023-05-17T03:06:06.123Z,21.06
2023-05-17T03:06:37.793Z,21.05
2023-05-17T03:07:09.240Z,21.08
2023-05-17T03:07:40.649Z,21.09
2023-05-17T03:08:12.087Z,21.09
2023-05-17T03:08:43.522Z,21.10
2023-05-17T03:09:14.964Z,21.07
2023-05-17T03:09:46.340Z,21.08
2023-05-17T03:10:17.742Z,21.07
2023-05-17T03:10:49.189Z,21.09
2023-05-17T03:11:20.615Z,21.08
2023-05-17T03:11:52.064Z,21.08
2023-05-17T03:12:23.497Z,21.10
2023-05-17T03:12:54.906Z,21.13
2023-05-17T03:13:26.388Z,21.14
2023-05-17T03:13:57.860Z,21.13
2023-05-17T03:14:29.266Z,21.13
2023-05-17T03:15:00.649Z,21.12
2023-05-17T03:15:32.041Z,21.17
2023-05-17T03:16:03.491Z,21.16
2023-05-17T03:16:34.912Z,21.14
2023-05-17T03:17:06.444Z,21.15
2023-05-17T03:17:37.932Z,21.16
2023-05-17T03:18:09.812Z,21.14
2023-05-17T03:18:41.489Z,21.19
2023-05-17T03:19:13.145Z,21.24
2023-05-17T03:19:44.680Z,21.19
2023-05-17T03:20:16.145Z,21.18
2023-05-17T03:20:47.537Z,21.20
2023-05-17T03:21:18.944Z,21.22
2023-05-17T03:21:50.374Z,21.23
2023-05-17T03:22:21.863Z,21.20
2023-05-17T03:22:53.259Z,21.25
2023-05-17T03:23:24.678Z,21.23
2023-05-17T03:23:56.104Z,21.23
2023-05-17T03:24:27.632Z,21.17
2023-05-17T03:24:59.032Z,21.15
2023-05-17T03:25:30.659Z,21.13
2023-05-17T03:26:02.247Z,21.18
2023-05-17T03:26:33.698Z,21.16
2023-05-17T03:27:05.129Z,21.12
2023-05-17T03:27:36.823Z,21.16
2023-05-17T03:28:08.413Z,21.21
2023-05-17T03:28:41.509Z,21.17
2023-05-17T03:29:12.974Z,21.21
2023-05-17T03:29:44.389Z,21.19
2023-05-17T03:30:15.860Z,21.18
2023-05-17T03:30:47.335Z,21.18
2023-05-17T03:31:18.789Z,21.23
2023-05-17T03:31:50.233Z,21.21
2023-05-17T03:32:21.699Z,21.24
2023-05-17T03:32:53.245Z,21.24
2023-05-17T03:33:24.969Z,21.21
2023-05-17T03:33:56.527Z,21.18
2023-05-17T03:34:28.004Z,21.19
2023-05-17T03:34:59.474Z,21.16
2023-05-17T03:35:31.082Z,21.17
2023-05-17T03:36:02.658Z,21.21
2023-05-17T03:36:34.042Z,21.20
2023-05-17T03:37:05.535Z,21.23
2023-05-17T03:37:37.041Z,21.25
2023-05-17T03:38:08.595Z,21.22
2023-05-17T03:38:39.990Z,21.24
2023-05-17T03:39:11.534Z,21.16
2023-05-17T03:39:42.974Z,21.17
2023-05-17T03:40:14.415Z,21.21
2023-05-17T03:40:45.795Z,21.23
2023-05-17T03:41:17.247Z,21.18
2023-05-17T03:41:48.623Z,21.18
2023-05-17T03:42:20.046Z,21.20
2023-05-17T03:42:51.583Z,21.19
2023-05-17T03:43:22.992Z,21.18
2023-05-17T03:43:54.431Z,21.17
2023-05-17T03:44:25.893Z,21.24
2023-05-17T03:44:57.322Z,21.24
2023-05-17T03:45:28.912Z,21.21
2023-05-17T03:46:00.424Z,21.23
2023-05-17T03:46:31.930Z,21.20
2023-05-17T03:47:03.336Z,21.20
2023-05-17T03:47:34.897Z,21.23
2023-05-17T03:48:06.422Z,21.25
2023-05-17T03:48:37.948Z,21.28
2023-05-17T03:49:09.519Z,21.31
2023-05-17T03:49:41.202Z,21.32
2023-05-17T03:50:12.705Z,21.35
2023-05-17T03:50:44.119Z,21.28
2023-05-17T03:51:15.571Z,21.29
2023-05-17T03:51:46.944Z,21.32
2023-05-17T03:52:18.349Z,21.28
2023-05-17T03:52:49.765Z,21.29
2023-05-17T03:53:21.353Z,21.26
2023-05-17T03:53:52.801Z,21.28
2023-05-17T03:54:24.230Z,21.26
2023-05-17T03:54:55.627Z,21.25
2023-05-17T03:55:27.183Z,21.30
2023-05-17T03:55:58.747Z,21.31
2023-05-17T03:56:30.204Z,21.29
2023-05-17T03:57:01.588Z,21.28
2023-05-17T03:57:32.973Z,21.28
2023-05-17T03:58:04.354Z,21.33
2023-05-17T03:58:35.846Z,21.31
2023-05-17T03:59:07.305Z,21.38
2023-05-17T03:59:38.753Z,21.32
2023-05-17T04:00:10.218Z,21.31
2023-05-17T04:00:41.648Z,21.32
2023-05-17T04:01:13.046Z,21.33
2023-05-17T04:01:44.454Z,21.30
2023-05-17T04:02:15.881Z,21.33
2023-05-17T04:02:47.348Z,21.32
2023-05-17T04:03:20.322Z,21.28
2023-05-17T04:03:52.024Z,21.25
2023-05-17T04:04:23.478Z,21.31
2023-05-17T04:04:55.002Z,21.31
2023-05-17T04:05:26.704Z,21.29
2023-05-17T04:05:58.277Z,21.29
2023-05-17T04:06:29.811Z,21.30
2023-05-17T04:07:01.192Z,21.30
2023-05-17T04:07:32.602Z,21.32
2023-05-17T04:08:04.041Z,21.28
2023-05-17T04:08:35.454Z,21.31
2023-05-17T04:09:06.950Z,21.30
2023-05-17T04:09:38.355Z,21.28
2023-05-17T04:10:09.714Z,21.29
2023-05-17T04:10:41.133Z,21.26
2023-05-17T04:11:12.751Z,21.27
2023-05-17T04:11:44.201Z,21.25
2023-05-17T04:12:15.643Z,21.31
2023-05-17T04:12:47.051Z,21.29
2023-05-17T04:13:18.457Z,21.29
2023-05-17T04:13:49.873Z,21.27
2023-05-17T04:14:21.320Z,21.29
2023-05-17T04:14:52.694Z,21.27
2023-05-17T04:15:24.128Z,21.26
2023-05-17T04:15:55.565Z,21.27
2023-05-17T04:16:26.940Z,21.26
2023-05-17T04:16:58.429Z,21.31
2023-05-17T04:17:29.913Z,21.26
2023-05-17T04:18:01.478Z,21.30
2023-05-17T04:18:33.099Z,21.29
2023-05-17T04:19:04.718Z,21.28
2023-05-17T04:19:36.367Z,21.28
2023-05-17T04:20:07.814Z,21.24
2023-05-17T04:20:39.208Z,21.25
2023-05-17T04:21:10.656Z,21.28
2023-05-17T04:21:42.269Z,21.29
2023-05-17T04:22:13.721Z,21.26
2023-05-17T04:22:45.162Z,21.26
2023-05-17T04:23:16.588Z,21.25
2023-05-17T04:23:48.034Z,21.28
2023-05-17T04:24:19.454Z,21.26
2023-05-17T04:24:50.933Z,21.24
2023-05-17T04:25:22.334Z,21.23
2023-05-17T04:25:53.731Z,21.24
2023-05-17T04:26:25.154Z,21.24
2023-05-17T04:26:56.849Z,21.21
2023-05-17T04:27:28.302Z,21.21
2023-05-17T04:27:59.747Z,21.21
2023-05-17T04:28:31.174Z,21.21
2023-05-17T04:29:02.574Z,21.25
2023-05-17T04:29:34.098Z,21.26
2023-05-17T04:30:05.571Z,21.22
2023-05-17T04:30:37.056Z,21.27
2023-05-17T04:31:08.711Z,21.26
2023-05-17T04:31:40.179Z,21.28
2023-05-17T04:32:11.612Z,21.30
2023-05-17T04:32:43.237Z,21.35
2023-05-17T04:33:15.009Z,21.36
2023-05-17T04:33:46.500Z,21.33
2023-05-17T04:34:18.009Z,21.37
2023-05-17T04:34:49.446Z,21.43
2023-05-17T04:35:20.932Z,21.37
2023-05-17T04:35:52.392Z,21.39
2023-05-17T04:36:23.795Z,21.37
2023-05-17T04:36:55.223Z,21.35
2023-05-17T04:37:26.659Z,21.33
2023-05-17T04:37:58.047Z,21.31
2023-05-17T04:38:29.486Z,21.30
2023-05-17T04:39:00.961Z,21.29
2023-05-17T04:39:32.375Z,21.34
2023-05-17T04:40:03.793Z,21.35
2023-05-17T04:40:35.359Z,21.38
2023-05-17T04:41:06.831Z,21.41
2023-05-17T04:41:38.299Z,21.40
2023-05-17T04:42:09.673Z,21.39
2023-05-17T04:42:41.062Z,21.38
2023-05-17T04:43:12.505Z,21.39
2023-05-17T04:43:44.007Z,21.40
2023-05-17T04:44:15.421Z,21.40
2023-05-17T04:44:46.880Z,21.42
2023-05-17T04:45:18.301Z,21.47
2023-05-17T04:45:49.810Z,21.42
2023-05-17T04:46:21.208Z,21.41
2023-05-17T04:46:52.587Z,21.41
2023-05-17T04:47:24.049Z,21.43
2023-05-17T04:47:55.639Z,21.45
2023-05-17T04:48:27.234Z,21.43
2023-05-17T04:48:58.847Z,21.45
2023-05-17T04:49:30.376Z,21.47
2023-05-17T04:50:01.858Z,21.46
2023-05-17T04:50:33.301Z,21.44
2023-05-17T04:51:04.825Z,21.44
2023-05-17T04:51:36.356Z,21.46
2023-05-17T04:52:07.772Z,21.45
2023-05-17T04:52:39.232Z,21.41
2023-05-17T04:53:10.678Z,21.44
2023-05-17T04:53:42.083Z,21.43
2023-05-17T04:54:13.536Z,21.45
2023-05-17T04:54:44.982Z,21.40
2023-05-17T04:55:16.435Z,21.39
2023-05-17T04:55:47.839Z,21.45
2023-05-17T04:56:19.355Z,21.48
2023-05-17T04:56:50.742Z,21.51
2023-05-17T04:57:22.172Z,21.45
2023-05-17T04:57:53.600Z,21.42
2023-05-17T04:58:25.114Z,21.46
2023-05-17T04:58:56.572Z,21.49
2023-05-17T04:59:28.063Z,21.47
2023-05-17T04:59:59.471Z,21.44
2023-05-17T05:00:30.916Z,21.42
2023-05-17T05:01:02.325Z,21.45
2023-05-17T05:01:33.845Z,21.50
2023-05-17T05:02:05.304Z,21.51
2023-05-17T05:02:36.823Z,21.49
2023-05-17T05:03:08.365Z,21.49
2023-05-17T05:03:39.876Z,21.46
2023-05-17T05:04:11.491Z,21.49
2023-05-17T05:04:43.123Z,21.49
2023-05-17T05:05:14.784Z,21.54
2023-05-17T05:05:46.285Z,21.52
2023-05-17T05:06:17.785Z,21.57
2023-05-17T05:06:49.229Z,21.56
2023-05-17T05:07:20.644Z,21.54
2023-05-17T05:07:52.049Z,21.57
2023-05-17T05:08:23.482Z,21.59
2023-05-17T05:08:54.989Z,21.61
2023-05-17T05:09:26.418Z,21.59
2023-05-17T05:09:57.835Z,21.56
2023-05-17T05:10:30.468Z,21.54
2023-05-17T05:11:02.015Z,21.55
2023-05-17T05:11:33.432Z,21.53
2023-05-17T05:12:04.876Z,21.54
2023-05-17T05:12:36.315Z,21.54
2023-05-17T05:13:07.717Z,21.57
2023-05-17T05:13:39.184Z,21.57
2023-05-17T05:14:10.573Z,21.55
2023-05-17T05:14:42.064Z,21.55
2023-05-17T05:15:13.484Z,21.57
2023-05-17T05:15:44.890Z,21.56
2023-05-17T05:16:16.403Z,21.58
2023-05-17T05:16:47.792Z,21.57
2023-05-17T05:17:20.413Z,21.57
2023-05-17T05:17:51.948Z,21.56
2023-05-17T05:18:23.604Z,21.54
2023-05-17T05:18:55.250Z,21.53
2023-05-17T05:19:26.897Z,21.56
2023-05-17T05:19:58.492Z,21.54
2023-05-17T05:20:29.982Z,21.56
2023-05-17T05:21:01.417Z,21.52
2023-05-17T05:21:32.952Z,21.48
2023-05-17T05:22:04.426Z,21.47
2023-05-17T05:22:35.947Z,21.57
2023-05-17T05:23:07.382Z,21.59
2023-05-17T05:23:38.806Z,21.59
2023-05-17T05:24:10.223Z,21.53
2023-05-17T05:24:41.840Z,21.58
2023-05-17T05:25:13.220Z,21.56
2023-05-17T05:25:44.658Z,21.58
2023-05-17T05:26:16.100Z,21.56
2023-05-17T05:26:47.657Z,21.57
2023-05-17T05:27:19.051Z,21.58
2023-05-17T05:27:50.453Z,21.57
2023-05-17T05:28:21.927Z,21.60
2023-05-17T05:28:53.358Z,21.60
2023-05-17T05:29:24.715Z,21.63
2023-05-17T05:29:56.191Z,21.60
2023-05-17T05:30:27.641Z,21.59
2023-05-17T05:30:59.113Z,21.62
2023-05-17T05:31:30.575Z,21.63
2023-05-17T05:32:02.056Z,21.63
2023-05-17T05:32:33.660Z,21.65
2023-05-17T05:33:05.394Z,21.60
2023-05-17T05:33:36.897Z,21.59
2023-05-17T05:34:08.734Z,21.61
2023-05-17T05:34:40.268Z,21.61
2023-05-17T05:35:11.749Z,21.63
2023-05-17T05:35:43.121Z,21.66
2023-05-17T05:36:14.585Z,21.68
2023-05-17T05:36:46.021Z,21.67
2023-05-17T05:37:18.713Z,21.65
2023-05-17T05:37:50.285Z,21.66
2023-05-17T05:38:21.865Z,21.62
2023-05-17T05:38:53.282Z,21.64
2023-05-17T05:39:24.706Z,21.64
2023-05-17T05:39:56.111Z,21.69
2023-05-17T05:40:27.924Z,21.66
2023-05-17T05:40:59.774Z,21.67
2023-05-17T05:41:31.163Z,21.64
2023-05-17T05:42:02.567Z,21.64
2023-05-17T05:42:34.011Z,21.61
2023-05-17T05:43:05.553Z,21.67
2023-05-17T05:43:36.941Z,21.66
2023-05-17T05:44:08.432Z,21.71
2023-05-17T05:44:39.865Z,21.74
2023-05-17T05:45:11.221Z,21.74
2023-05-17T05:45:42.574Z,21.74
2023-05-17T05:46:14.029Z,21.74
2023-05-17T05:46:45.417Z,21.70
2023-05-17T05:47:16.857Z,21.72
2023-05-17T05:47:48.460Z,21.73
2023-05-17T05:48:20.161Z,21.66
2023-05-17T05:48:51.798Z,21.67
2023-05-17T05:49:23.318Z,21.68
2023-05-17T05:49:54.701Z,21.68
2023-05-17T05:50:26.192Z,21.74
2023-05-17T05:50:57.644Z,21.71
2023-05-17T05:51:29.055Z,21.73
2023-05-17T05:52:00.557Z,21.74
2023-05-17T05:52:31.949Z,21.74
2023-05-17T05:53:17.171Z,21.76
2023-05-17T05:53:49.894Z,21.74
2023-05-17T05:54:21.427Z,21.72
2023-05-17T05:54:52.880Z,21.71
2023-05-17T05:55:24.474Z,21.72
2023-05-17T05:55:55.920Z,21.75
2023-05-17T05:56:27.430Z,21.76
2023-05-17T05:56:58.848Z,21.77
2023-05-17T05:57:30.217Z,21.79
2023-05-17T05:58:01.636Z,21.79
2023-05-17T05:58:33.054Z,21.75
2023-05-17T05:59:04.474Z,21.69
2023-05-17T05:59:35.929Z,21.68
2023-05-17T06:00:07.326Z,21.66
2023-05-17T06:00:38.721Z,21.68
2023-05-17T06:01:13.020Z,21.68
2023-05-17T06:01:45.486Z,21.75
2023-05-17T06:02:16.914Z,21.78
2023-05-17T06:02:48.353Z,21.78
2023-05-17T06:03:19.912Z,21.74
2023-05-17T06:03:51.298Z,21.72
2023-05-17T06:04:32.835Z,21.77
2023-05-17T06:05:12.561Z,21.72
2023-05-17T06:05:44.069Z,21.78
2023-05-17T06:06:15.567Z,21.78
2023-05-17T06:06:47.167Z,21.81
2023-05-17T06:07:18.716Z,21.76
2023-05-17T06:07:50.090Z,21.75
2023-05-17T06:08:21.490Z,21.78
2023-05-17T06:08:52.913Z,21.81
2023-05-17T06:09:24.411Z,21.80
2023-05-17T06:09:55.867Z,21.80
2023-05-17T06:10:27.526Z,21.79
2023-05-17T06:10:59.105Z,21.80
2023-05-17T06:11:30.520Z,21.80
2023-05-17T06:12:02.035Z,21.80
2023-05-17T06:12:33.442Z,21.78
2023-05-17T06:13:04.926Z,21.77
2023-05-17T06:13:36.344Z,21.81
2023-05-17T06:14:07.885Z,21.83
2023-05-17T06:14:39.332Z,21.79
2023-05-17T06:15:12.136Z,21.80
2023-05-17T06:15:43.571Z,21.84
2023-05-17T06:16:14.973Z,21.84
2023-05-17T06:16:46.413Z,21.83
2023-05-17T06:17:17.868Z,21.82
2023-05-17T06:17:49.622Z,21.80
2023-05-17T06:18:21.217Z,21.86
2023-05-17T06:18:52.889Z,21.88
2023-05-17T06:19:24.554Z,21.91
2023-05-17T06:19:56.194Z,21.92
2023-05-17T06:20:27.870Z,21.93
2023-05-17T06:20:59.463Z,21.91
2023-05-17T06:21:30.934Z,21.93
2023-05-17T06:22:02.375Z,21.92
2023-05-17T06:22:33.884Z,21.91
2023-05-17T06:23:05.325Z,21.93
2023-05-17T06:23:36.802Z,21.92
2023-05-17T06:24:08.258Z,21.92
2023-05-17T06:24:39.677Z,21.94
2023-05-17T06:25:11.107Z,21.93
2023-05-17T06:25:42.518Z,21.96
2023-05-17T06:26:13.986Z,21.96
2023-05-17T06:26:45.444Z,21.95
2023-05-17T06:27:16.860Z,21.93
2023-05-17T06:27:48.262Z,21.95
2023-05-17T06:28:19.679Z,21.96
2023-05-17T06:28:52.073Z,21.96
2023-05-17T06:29:23.457Z,21.89
2023-05-17T06:29:54.829Z,21.91
2023-05-17T06:30:26.358Z,21.93
2023-05-17T06:30:57.798Z,21.94
2023-05-17T06:31:29.234Z,21.91
2023-05-17T06:32:00.740Z,21.91
2023-05-17T06:32:32.315Z,21.94
2023-05-17T06:33:03.712Z,21.92
2023-05-17T06:33:35.188Z,21.93
2023-05-17T06:34:06.705Z,21.95
2023-05-17T06:34:41.131Z,21.93
2023-05-17T06:35:12.729Z,21.92
2023-05-17T06:35:54.944Z,21.92
2023-05-17T06:36:28.088Z,21.96
2023-05-17T06:36:59.516Z,21.95
2023-05-17T06:37:31.029Z,21.95
2023-05-17T06:38:02.446Z,21.94
2023-05-17T06:38:33.857Z,21.98
2023-05-17T06:39:05.269Z,21.91
2023-05-17T06:39:36.665Z,21.89
2023-05-17T06:40:42.414Z,21.93
2023-05-17T06:41:13.901Z,21.93
2023-05-17T06:41:45.288Z,21.95
2023-05-17T06:42:16.715Z,21.94
2023-05-17T06:42:48.111Z,21.94
2023-05-17T06:43:19.509Z,21.98
2023-05-17T06:43:51.045Z,21.96
2023-05-17T06:44:22.458Z,21.99
2023-05-17T06:44:53.931Z,21.94
2023-05-17T06:45:25.380Z,21.97
2023-05-17T06:45:56.787Z,21.91
2023-05-17T06:46:28.214Z,21.93
2023-05-17T06:46:59.631Z,21.92